sensor_id;sensor_type;location;lat;lon;timestamp;P1;durP1;ratioP1;P2;durP2;ratioP2
21046;SDS011;10682;50.874;3.656;2023-08-24T00:00:50;15.25;;;7.60;;
21046;SDS011;10682;50.874;3.656;2023-08-24T00:03:17;14.23;;;7.13;;
21046;SDS011;10682;50.874;3.656;2023-08-24T00:05:44;13.13;;;7.90;;
21046;SDS011;10682;50.874;3.656;2023-08-24T00:08:12;15.50;;;8.10;;
21046;SDS011;10682;50.874;3.656;2023-08-24T00:10:39;17.38;;;7.93;;
21046;SDS011;10682;50.874;3.656;2023-08-24T00:13:10;14.35;;;9.10;;
21046;SDS011;10682;50.874;3.656;2023-08-24T00:15:37;18.17;;;9.38;;
21046;SDS011;10682;50.874;3.656;2023-08-24T00:18:05;21.70;;;9.40;;
21046;SDS011;10682;50.874;3.656;2023-08-24T00:20:33;15.23;;;8.65;;
21046;SDS011;10682;50.874;3.656;2023-08-24T00:23:00;16.27;;;9.18;;
21046;SDS011;10682;50.874;3.656;2023-08-24T00:25:27;13.93;;;7.88;;
21046;SDS011;10682;50.874;3.656;2023-08-24T00:27:56;17.75;;;8.43;;
21046;SDS011;10682;50.874;3.656;2023-08-24T00:30:23;16.92;;;8.82;;
21046;SDS011;10682;50.874;3.656;2023-08-24T00:32:50;18.70;;;9.10;;
21046;SDS011;10682;50.874;3.656;2023-08-24T00:35:18;17.23;;;9.23;;
21046;SDS011;10682;50.874;3.656;2023-08-24T00:37:45;24.00;;;9.90;;
21046;SDS011;10682;50.874;3.656;2023-08-24T00:40:12;16.88;;;9.23;;
21046;SDS011;10682;50.874;3.656;2023-08-24T00:42:39;17.42;;;9.18;;
21046;SDS011;10682;50.874;3.656;2023-08-24T00:45:08;15.55;;;8.50;;
21046;SDS011;10682;50.874;3.656;2023-08-24T00:47:37;18.65;;;8.98;;
21046;SDS011;10682;50.874;3.656;2023-08-24T00:50:10;16.92;;;8.45;;
21046;SDS011;10682;50.874;3.656;2023-08-24T00:52:38;13.57;;;8.32;;
21046;SDS011;10682;50.874;3.656;2023-08-24T00:55:08;11.98;;;7.80;;
21046;SDS011;10682;50.874;3.656;2023-08-24T00:57:37;14.00;;;8.02;;
21046;SDS011;10682;50.874;3.656;2023-08-24T01:00:12;14.18;;;7.60;;
21046;SDS011;10682;50.874;3.656;2023-08-24T01:02:40;14.95;;;8.65;;
21046;SDS011;10682;50.874;3.656;2023-08-24T01:05:07;17.25;;;7.38;;
21046;SDS011;10682;50.874;3.656;2023-08-24T01:07:34;15.13;;;8.10;;
21046;SDS011;10682;50.874;3.656;2023-08-24T01:10:06;17.05;;;7.78;;
21046;SDS011;10682;50.874;3.656;2023-08-24T01:18:30;14.38;;;8.52;;
21046;SDS011;10682;50.874;3.656;2023-08-24T01:21:00;16.70;;;9.30;;
21046;SDS011;10682;50.874;3.656;2023-08-24T01:23:41;14.10;;;8.40;;
21046;SDS011;10682;50.874;3.656;2023-08-24T01:26:16;16.88;;;8.68;;
21046;SDS011;10682;50.874;3.656;2023-08-24T01:28:45;16.45;;;9.25;;
21046;SDS011;10682;50.874;3.656;2023-08-24T01:31:14;19.40;;;9.82;;
21046;SDS011;10682;50.874;3.656;2023-08-24T01:33:43;24.75;;;10.60;;
21046;SDS011;10682;50.874;3.656;2023-08-24T01:36:11;20.73;;;10.15;;
21046;SDS011;10682;50.874;3.656;2023-08-24T01:38:40;16.70;;;9.77;;
21046;SDS011;10682;50.874;3.656;2023-08-24T01:41:12;12.35;;;9.07;;
21046;SDS011;10682;50.874;3.656;2023-08-24T01:43:52;15.75;;;9.23;;
21046;SDS011;10682;50.874;3.656;2023-08-24T01:46:21;18.80;;;9.68;;
21046;SDS011;10682;50.874;3.656;2023-08-24T01:48:52;14.32;;;8.90;;
21046;SDS011;10682;50.874;3.656;2023-08-24T01:51:21;19.83;;;9.88;;
21046;SDS011;10682;50.874;3.656;2023-08-24T01:53:50;19.55;;;9.43;;
21046;SDS011;10682;50.874;3.656;2023-08-24T01:56:19;14.63;;;9.07;;
21046;SDS011;10682;50.874;3.656;2023-08-24T01:58:47;15.95;;;9.35;;
21046;SDS011;10682;50.874;3.656;2023-08-24T02:01:14;18.13;;;9.02;;
21046;SDS011;10682;50.874;3.656;2023-08-24T02:03:42;13.38;;;9.52;;
21046;SDS011;10682;50.874;3.656;2023-08-24T02:06:09;12.48;;;8.57;;
21046;SDS011;10682;50.874;3.656;2023-08-24T02:08:36;14.73;;;7.70;;
21046;SDS011;10682;50.874;3.656;2023-08-24T02:11:03;18.77;;;8.27;;
21046;SDS011;10682;50.874;3.656;2023-08-24T02:13:30;16.98;;;8.50;;
21046;SDS011;10682;50.874;3.656;2023-08-24T02:16:04;15.80;;;9.05;;
21046;SDS011;10682;50.874;3.656;2023-08-24T02:18:35;22.08;;;9.00;;
21046;SDS011;10682;50.874;3.656;2023-08-24T02:21:09;16.77;;;9.00;;
21046;SDS011;10682;50.874;3.656;2023-08-24T02:23:39;18.35;;;9.45;;
21046;SDS011;10682;50.874;3.656;2023-08-24T02:26:06;15.63;;;8.35;;
21046;SDS011;10682;50.874;3.656;2023-08-24T02:28:36;15.27;;;9.23;;
21046;SDS011;10682;50.874;3.656;2023-08-24T02:31:04;13.13;;;8.38;;
21046;SDS011;10682;50.874;3.656;2023-08-24T02:33:31;17.27;;;8.75;;
21046;SDS011;10682;50.874;3.656;2023-08-24T02:35:59;15.88;;;8.20;;
21046;SDS011;10682;50.874;3.656;2023-08-24T02:38:26;15.93;;;8.50;;
21046;SDS011;10682;50.874;3.656;2023-08-24T02:41:03;17.77;;;9.02;;
21046;SDS011;10682;50.874;3.656;2023-08-24T02:43:32;14.95;;;8.43;;
21046;SDS011;10682;50.874;3.656;2023-08-24T02:46:04;14.65;;;8.48;;
21046;SDS011;10682;50.874;3.656;2023-08-24T02:48:34;14.63;;;8.15;;
21046;SDS011;10682;50.874;3.656;2023-08-24T02:51:02;16.00;;;8.88;;
21046;SDS011;10682;50.874;3.656;2023-08-24T02:53:32;11.18;;;7.32;;
21046;SDS011;10682;50.874;3.656;2023-08-24T02:56:00;19.27;;;9.10;;
21046;SDS011;10682;50.874;3.656;2023-08-24T02:58:27;17.65;;;9.57;;
21046;SDS011;10682;50.874;3.656;2023-08-24T03:00:55;13.50;;;8.50;;
21046;SDS011;10682;50.874;3.656;2023-08-24T03:03:23;12.43;;;8.40;;
21046;SDS011;10682;50.874;3.656;2023-08-24T03:05:58;14.70;;;8.18;;
21046;SDS011;10682;50.874;3.656;2023-08-24T03:08:29;12.85;;;8.90;;
21046;SDS011;10682;50.874;3.656;2023-08-24T03:10:57;12.40;;;8.48;;
21046;SDS011;10682;50.874;3.656;2023-08-24T03:13:27;14.57;;;7.35;;
21046;SDS011;10682;50.874;3.656;2023-08-24T03:15:55;13.13;;;7.72;;
21046;SDS011;10682;50.874;3.656;2023-08-24T03:18:22;11.18;;;7.75;;
21046;SDS011;10682;50.874;3.656;2023-08-24T03:20:49;15.00;;;8.55;;
21046;SDS011;10682;50.874;3.656;2023-08-24T03:23:17;15.70;;;8.65;;
21046;SDS011;10682;50.874;3.656;2023-08-24T03:25:44;12.88;;;8.15;;
21046;SDS011;10682;50.874;3.656;2023-08-24T03:28:11;12.90;;;8.27;;
21046;SDS011;10682;50.874;3.656;2023-08-24T03:30:39;12.93;;;7.93;;
21046;SDS011;10682;50.874;3.656;2023-08-24T03:33:13;13.93;;;8.55;;
21046;SDS011;10682;50.874;3.656;2023-08-24T03:35:40;13.38;;;8.80;;
21046;SDS011;10682;50.874;3.656;2023-08-24T03:38:08;12.27;;;7.40;;
21046;SDS011;10682;50.874;3.656;2023-08-24T03:40:35;11.57;;;7.65;;
21046;SDS011;10682;50.874;3.656;2023-08-24T03:43:03;14.65;;;9.35;;
21046;SDS011;10682;50.874;3.656;2023-08-24T03:45:31;16.55;;;9.55;;
21046;SDS011;10682;50.874;3.656;2023-08-24T03:47:58;12.93;;;9.20;;
21046;SDS011;10682;50.874;3.656;2023-08-24T03:50:25;15.95;;;10.02;;
21046;SDS011;10682;50.874;3.656;2023-08-24T03:52:53;16.33;;;9.27;;
21046;SDS011;10682;50.874;3.656;2023-08-24T03:55:21;15.38;;;8.65;;
21046;SDS011;10682;50.874;3.656;2023-08-24T03:57:49;11.68;;;8.35;;
21046;SDS011;10682;50.874;3.656;2023-08-24T04:00:17;16.85;;;8.85;;
21046;SDS011;10682;50.874;3.656;2023-08-24T04:02:44;17.60;;;8.95;;
21046;SDS011;10682;50.874;3.656;2023-08-24T04:05:12;19.15;;;9.10;;
21046;SDS011;10682;50.874;3.656;2023-08-24T04:07:40;18.60;;;9.38;;
21046;SDS011;10682;50.874;3.656;2023-08-24T04:10:08;23.92;;;10.30;;
21046;SDS011;10682;50.874;3.656;2023-08-24T04:12:37;20.52;;;10.40;;
21046;SDS011;10682;50.874;3.656;2023-08-24T04:15:04;12.68;;;9.38;;
21046;SDS011;10682;50.874;3.656;2023-08-24T04:17:32;18.05;;;10.73;;
21046;SDS011;10682;50.874;3.656;2023-08-24T04:19:59;15.95;;;9.90;;
21046;SDS011;10682;50.874;3.656;2023-08-24T04:22:26;19.77;;;9.90;;
21046;SDS011;10682;50.874;3.656;2023-08-24T04:24:53;16.25;;;9.75;;
21046;SDS011;10682;50.874;3.656;2023-08-24T04:27:20;15.82;;;9.77;;
21046;SDS011;10682;50.874;3.656;2023-08-24T04:29:48;17.73;;;10.02;;
21046;SDS011;10682;50.874;3.656;2023-08-24T04:32:15;17.58;;;9.48;;
21046;SDS011;10682;50.874;3.656;2023-08-24T04:34:42;18.52;;;9.73;;
21046;SDS011;10682;50.874;3.656;2023-08-24T04:37:10;15.00;;;9.00;;
21046;SDS011;10682;50.874;3.656;2023-08-24T04:39:37;20.95;;;9.82;;
21046;SDS011;10682;50.874;3.656;2023-08-24T04:42:04;15.38;;;9.30;;
21046;SDS011;10682;50.874;3.656;2023-08-24T04:44:32;19.42;;;9.88;;
21046;SDS011;10682;50.874;3.656;2023-08-24T04:46:59;17.65;;;9.30;;
21046;SDS011;10682;50.874;3.656;2023-08-24T04:49:27;12.63;;;9.13;;
21046;SDS011;10682;50.874;3.656;2023-08-24T04:51:55;16.58;;;10.05;;
21046;SDS011;10682;50.874;3.656;2023-08-24T04:54:22;21.70;;;9.80;;
21046;SDS011;10682;50.874;3.656;2023-08-24T04:56:49;17.35;;;9.18;;
21046;SDS011;10682;50.874;3.656;2023-08-24T04:59:17;19.17;;;9.90;;
21046;SDS011;10682;50.874;3.656;2023-08-24T05:01:44;14.50;;;8.88;;
21046;SDS011;10682;50.874;3.656;2023-08-24T05:04:11;17.15;;;9.77;;
21046;SDS011;10682;50.874;3.656;2023-08-24T05:06:39;18.38;;;10.00;;
21046;SDS011;10682;50.874;3.656;2023-08-24T05:09:06;18.75;;;9.93;;
21046;SDS011;10682;50.874;3.656;2023-08-24T05:11:33;13.38;;;9.07;;
21046;SDS011;10682;50.874;3.656;2023-08-24T05:14:01;17.13;;;9.25;;
21046;SDS011;10682;50.874;3.656;2023-08-24T05:16:28;14.43;;;8.40;;
21046;SDS011;10682;50.874;3.656;2023-08-24T05:18:55;12.90;;;8.02;;
21046;SDS011;10682;50.874;3.656;2023-08-24T05:21:22;21.20;;;9.90;;
21046;SDS011;10682;50.874;3.656;2023-08-24T05:23:49;17.60;;;9.23;;
21046;SDS011;10682;50.874;3.656;2023-08-24T05:26:16;13.80;;;8.23;;
21046;SDS011;10682;50.874;3.656;2023-08-24T05:28:49;16.38;;;8.43;;
21046;SDS011;10682;50.874;3.656;2023-08-24T05:31:16;15.73;;;8.13;;
21046;SDS011;10682;50.874;3.656;2023-08-24T05:33:47;13.30;;;7.95;;
21046;SDS011;10682;50.874;3.656;2023-08-24T05:36:14;15.05;;;8.18;;
21046;SDS011;10682;50.874;3.656;2023-08-24T05:38:41;11.48;;;7.82;;
21046;SDS011;10682;50.874;3.656;2023-08-24T05:41:16;17.85;;;9.50;;
21046;SDS011;10682;50.874;3.656;2023-08-24T05:43:43;17.38;;;9.48;;
21046;SDS011;10682;50.874;3.656;2023-08-24T05:46:12;15.98;;;8.35;;
21046;SDS011;10682;50.874;3.656;2023-08-24T05:48:39;16.27;;;8.13;;
21046;SDS011;10682;50.874;3.656;2023-08-24T05:51:08;14.45;;;9.60;;
21046;SDS011;10682;50.874;3.656;2023-08-24T05:53:38;12.43;;;8.80;;
21046;SDS011;10682;50.874;3.656;2023-08-24T05:56:07;15.90;;;9.13;;
21046;SDS011;10682;50.874;3.656;2023-08-24T05:58:34;20.30;;;9.73;;
21046;SDS011;10682;50.874;3.656;2023-08-24T06:01:01;17.77;;;8.98;;
21046;SDS011;10682;50.874;3.656;2023-08-24T06:03:28;15.45;;;8.98;;
21046;SDS011;10682;50.874;3.656;2023-08-24T06:06:00;15.27;;;8.85;;
21046;SDS011;10682;50.874;3.656;2023-08-24T06:08:30;16.25;;;8.80;;
21046;SDS011;10682;50.874;3.656;2023-08-24T06:10:57;18.88;;;8.95;;
21046;SDS011;10682;50.874;3.656;2023-08-24T06:13:25;16.77;;;9.25;;
21046;SDS011;10682;50.874;3.656;2023-08-24T06:15:53;22.13;;;8.95;;
21046;SDS011;10682;50.874;3.656;2023-08-24T06:18:23;21.88;;;8.80;;
21046;SDS011;10682;50.874;3.656;2023-08-24T06:20:50;18.17;;;8.88;;
21046;SDS011;10682;50.874;3.656;2023-08-24T06:23:17;16.48;;;7.80;;
21046;SDS011;10682;50.874;3.656;2023-08-24T06:25:46;15.82;;;8.68;;
21046;SDS011;10682;50.874;3.656;2023-08-24T06:28:13;14.55;;;8.70;;
21046;SDS011;10682;50.874;3.656;2023-08-24T06:30:41;16.23;;;8.20;;
21046;SDS011;10682;50.874;3.656;2023-08-24T06:33:13;16.98;;;8.38;;
21046;SDS011;10682;50.874;3.656;2023-08-24T06:35:43;16.05;;;9.20;;
21046;SDS011;10682;50.874;3.656;2023-08-24T06:38:11;17.70;;;8.43;;
21046;SDS011;10682;50.874;3.656;2023-08-24T06:40:39;15.80;;;8.90;;
21046;SDS011;10682;50.874;3.656;2023-08-24T06:43:07;18.45;;;8.95;;
21046;SDS011;10682;50.874;3.656;2023-08-24T06:45:34;18.60;;;9.00;;
21046;SDS011;10682;50.874;3.656;2023-08-24T06:48:03;16.10;;;8.70;;
21046;SDS011;10682;50.874;3.656;2023-08-24T06:50:37;14.90;;;8.43;;
21046;SDS011;10682;50.874;3.656;2023-08-24T06:53:06;13.82;;;7.35;;
21046;SDS011;10682;50.874;3.656;2023-08-24T06:55:33;13.77;;;8.15;;
21046;SDS011;10682;50.874;3.656;2023-08-24T06:58:00;17.33;;;7.72;;
21046;SDS011;10682;50.874;3.656;2023-08-24T07:00:40;13.23;;;7.78;;
21046;SDS011;10682;50.874;3.656;2023-08-24T07:03:33;11.98;;;7.95;;
21046;SDS011;10682;50.874;3.656;2023-08-24T07:06:01;13.98;;;7.15;;
21046;SDS011;10682;50.874;3.656;2023-08-24T07:08:30;14.82;;;7.60;;
21046;SDS011;10682;50.874;3.656;2023-08-24T07:11:04;13.93;;;7.78;;
21046;SDS011;10682;50.874;3.656;2023-08-24T07:13:46;12.88;;;6.80;;
21046;SDS011;10682;50.874;3.656;2023-08-24T07:16:16;12.27;;;7.00;;
21046;SDS011;10682;50.874;3.656;2023-08-24T07:18:52;18.75;;;8.35;;
21046;SDS011;10682;50.874;3.656;2023-08-24T07:21:24;12.88;;;8.02;;
21046;SDS011;10682;50.874;3.656;2023-08-24T07:23:52;14.27;;;8.57;;
21046;SDS011;10682;50.874;3.656;2023-08-24T07:26:30;15.15;;;7.70;;
21046;SDS011;10682;50.874;3.656;2023-08-24T07:28:57;14.60;;;8.02;;
21046;SDS011;10682;50.874;3.656;2023-08-24T07:31:28;14.70;;;8.75;;
21046;SDS011;10682;50.874;3.656;2023-08-24T07:34:01;16.23;;;8.40;;
21046;SDS011;10682;50.874;3.656;2023-08-24T07:36:30;10.38;;;6.85;;
21046;SDS011;10682;50.874;3.656;2023-08-24T07:38:57;16.10;;;8.60;;
21046;SDS011;10682;50.874;3.656;2023-08-24T07:41:24;14.95;;;7.78;;
21046;SDS011;10682;50.874;3.656;2023-08-24T07:43:52;15.52;;;8.50;;
21046;SDS011;10682;50.874;3.656;2023-08-24T07:46:19;13.30;;;8.02;;
21046;SDS011;10682;50.874;3.656;2023-08-24T07:48:48;14.27;;;8.73;;
21046;SDS011;10682;50.874;3.656;2023-08-24T07:51:18;14.27;;;8.18;;
21046;SDS011;10682;50.874;3.656;2023-08-24T07:53:45;16.77;;;7.80;;
21046;SDS011;10682;50.874;3.656;2023-08-24T07:56:13;14.68;;;7.90;;
21046;SDS011;10682;50.874;3.656;2023-08-24T07:58:42;15.05;;;8.57;;
21046;SDS011;10682;50.874;3.656;2023-08-24T08:01:09;15.70;;;8.63;;
21046;SDS011;10682;50.874;3.656;2023-08-24T08:03:36;15.80;;;8.00;;
21046;SDS011;10682;50.874;3.656;2023-08-24T08:06:08;22.85;;;8.35;;
21046;SDS011;10682;50.874;3.656;2023-08-24T08:08:38;14.48;;;7.93;;
21046;SDS011;10682;50.874;3.656;2023-08-24T08:11:06;15.68;;;8.45;;
21046;SDS011;10682;50.874;3.656;2023-08-24T08:13:34;22.90;;;9.32;;
21046;SDS011;10682;50.874;3.656;2023-08-24T08:16:03;23.42;;;7.95;;
21046;SDS011;10682;50.874;3.656;2023-08-24T08:18:32;21.45;;;8.50;;
21046;SDS011;10682;50.874;3.656;2023-08-24T08:21:16;22.08;;;8.32;;
21046;SDS011;10682;50.874;3.656;2023-08-24T08:23:51;19.02;;;7.88;;
21046;SDS011;10682;50.874;3.656;2023-08-24T08:26:25;17.02;;;8.10;;
21046;SDS011;10682;50.874;3.656;2023-08-24T08:29:04;13.60;;;8.10;;
21046;SDS011;10682;50.874;3.656;2023-08-24T08:31:32;23.73;;;9.50;;
21046;SDS011;10682;50.874;3.656;2023-08-24T08:34:11;23.40;;;9.45;;
21046;SDS011;10682;50.874;3.656;2023-08-24T08:36:40;15.30;;;9.35;;
21046;SDS011;10682;50.874;3.656;2023-08-24T08:39:13;17.08;;;9.70;;
21046;SDS011;10682;50.874;3.656;2023-08-24T08:41:44;15.18;;;10.15;;
21046;SDS011;10682;50.874;3.656;2023-08-24T08:44:14;16.40;;;9.63;;
21046;SDS011;10682;50.874;3.656;2023-08-24T08:46:42;18.00;;;10.10;;
21046;SDS011;10682;50.874;3.656;2023-08-24T08:49:11;17.05;;;9.52;;
21046;SDS011;10682;50.874;3.656;2023-08-24T08:51:42;22.90;;;10.38;;
21046;SDS011;10682;50.874;3.656;2023-08-24T08:54:09;18.67;;;10.93;;
21046;SDS011;10682;50.874;3.656;2023-08-24T08:56:37;18.77;;;9.75;;
21046;SDS011;10682;50.874;3.656;2023-08-24T08:59:06;19.40;;;9.70;;
21046;SDS011;10682;50.874;3.656;2023-08-24T09:01:36;21.67;;;11.05;;
21046;SDS011;10682;50.874;3.656;2023-08-24T09:04:04;20.27;;;11.98;;
21046;SDS011;10682;50.874;3.656;2023-08-24T09:06:33;23.08;;;12.60;;
21046;SDS011;10682;50.874;3.656;2023-08-24T09:09:02;27.35;;;13.75;;
21046;SDS011;10682;50.874;3.656;2023-08-24T09:11:31;25.77;;;16.00;;
21046;SDS011;10682;50.874;3.656;2023-08-24T09:14:00;24.60;;;13.77;;
21046;SDS011;10682;50.874;3.656;2023-08-24T09:16:31;26.00;;;13.45;;
21046;SDS011;10682;50.874;3.656;2023-08-24T09:19:00;28.73;;;13.10;;
21046;SDS011;10682;50.874;3.656;2023-08-24T09:21:36;25.35;;;12.80;;
21046;SDS011;10682;50.874;3.656;2023-08-24T09:24:05;23.42;;;12.20;;
21046;SDS011;10682;50.874;3.656;2023-08-24T09:26:33;26.20;;;12.48;;
21046;SDS011;10682;50.874;3.656;2023-08-24T09:29:15;20.80;;;12.02;;
21046;SDS011;10682;50.874;3.656;2023-08-24T09:31:43;20.92;;;11.52;;
21046;SDS011;10682;50.874;3.656;2023-08-24T09:34:13;20.10;;;11.15;;
21046;SDS011;10682;50.874;3.656;2023-08-24T09:36:52;17.38;;;8.93;;
21046;SDS011;10682;50.874;3.656;2023-08-24T09:39:20;16.38;;;7.88;;
21046;SDS011;10682;50.874;3.656;2023-08-24T09:41:49;11.88;;;6.22;;
21046;SDS011;10682;50.874;3.656;2023-08-24T09:44:17;14.50;;;7.05;;
21046;SDS011;10682;50.874;3.656;2023-08-24T09:46:45;11.73;;;6.47;;
21046;SDS011;10682;50.874;3.656;2023-08-24T09:49:14;15.10;;;7.65;;
21046;SDS011;10682;50.874;3.656;2023-08-24T09:51:41;16.33;;;7.82;;
21046;SDS011;10682;50.874;3.656;2023-08-24T09:54:10;15.77;;;7.65;;
21046;SDS011;10682;50.874;3.656;2023-08-24T09:56:40;11.52;;;6.00;;
21046;SDS011;10682;50.874;3.656;2023-08-24T09:59:17;8.45;;;5.30;;
21046;SDS011;10682;50.874;3.656;2023-08-24T10:01:47;9.32;;;5.72;;
21046;SDS011;10682;50.874;3.656;2023-08-24T10:04:33;12.95;;;5.63;;
21046;SDS011;10682;50.874;3.656;2023-08-24T10:07:08;10.93;;;5.53;;
21046;SDS011;10682;50.874;3.656;2023-08-24T10:09:51;13.10;;;5.65;;
21046;SDS011;10682;50.874;3.656;2023-08-24T10:12:36;9.32;;;6.03;;
21046;SDS011;10682;50.874;3.656;2023-08-24T10:15:10;12.85;;;6.68;;
21046;SDS011;10682;50.874;3.656;2023-08-24T10:17:40;13.30;;;6.28;;
21046;SDS011;10682;50.874;3.656;2023-08-24T10:20:09;7.78;;;4.57;;
21046;SDS011;10682;50.874;3.656;2023-08-24T10:22:46;7.05;;;4.68;;
21046;SDS011;10682;50.874;3.656;2023-08-24T10:25:28;7.35;;;4.20;;
21046;SDS011;10682;50.874;3.656;2023-08-24T10:30:34;8.23;;;4.70;;
21046;SDS011;10682;50.874;3.656;2023-08-24T10:33:11;9.85;;;4.60;;
21046;SDS011;10682;50.874;3.656;2023-08-24T10:38:26;10.63;;;4.65;;
21046;SDS011;10682;50.874;3.656;2023-08-24T10:41:02;10.50;;;4.05;;
21046;SDS011;10682;50.874;3.656;2023-08-24T10:43:37;9.20;;;4.38;;
21046;SDS011;10682;50.874;3.656;2023-08-24T10:46:11;7.43;;;4.43;;
21046;SDS011;10682;50.874;3.656;2023-08-24T10:54:17;8.75;;;4.53;;
21046;SDS011;10682;50.874;3.656;2023-08-24T10:57:02;7.28;;;4.45;;
21046;SDS011;10682;50.874;3.656;2023-08-24T10:59:34;14.05;;;3.78;;
21046;SDS011;10682;50.874;3.656;2023-08-24T11:05:29;6.95;;;4.15;;
21046;SDS011;10682;50.874;3.656;2023-08-24T11:10:33;7.05;;;3.78;;
21046;SDS011;10682;50.874;3.656;2023-08-24T11:15:45;6.93;;;3.92;;
21046;SDS011;10682;50.874;3.656;2023-08-24T11:18:23;8.02;;;3.70;;
21046;SDS011;10682;50.874;3.656;2023-08-24T11:20:56;8.43;;;4.00;;
21046;SDS011;10682;50.874;3.656;2023-08-24T11:26:01;7.13;;;4.15;;
21046;SDS011;10682;50.874;3.656;2023-08-24T11:28:30;8.05;;;4.15;;
21046;SDS011;10682;50.874;3.656;2023-08-24T11:30:58;7.30;;;4.47;;
21046;SDS011;10682;50.874;3.656;2023-08-24T11:33:34;11.43;;;5.03;;
21046;SDS011;10682;50.874;3.656;2023-08-24T11:36:05;10.98;;;6.38;;
21046;SDS011;10682;50.874;3.656;2023-08-24T11:38:42;8.48;;;4.63;;
21046;SDS011;10682;50.874;3.656;2023-08-24T11:41:20;8.80;;;4.95;;
21046;SDS011;10682;50.874;3.656;2023-08-24T11:43:48;11.77;;;6.20;;
21046;SDS011;10682;50.874;3.656;2023-08-24T11:46:17;6.43;;;4.68;;
21046;SDS011;10682;50.874;3.656;2023-08-24T11:48:46;8.23;;;4.32;;
21046;SDS011;10682;50.874;3.656;2023-08-24T11:51:15;6.68;;;4.35;;
21046;SDS011;10682;50.874;3.656;2023-08-24T11:53:59;7.47;;;4.55;;
21046;SDS011;10682;50.874;3.656;2023-08-24T11:56:28;7.80;;;4.20;;
21046;SDS011;10682;50.874;3.656;2023-08-24T11:58:55;6.90;;;4.40;;
21046;SDS011;10682;50.874;3.656;2023-08-24T12:01:23;7.25;;;4.50;;
21046;SDS011;10682;50.874;3.656;2023-08-24T12:03:53;9.13;;;4.25;;
21046;SDS011;10682;50.874;3.656;2023-08-24T12:06:22;10.48;;;4.95;;
21046;SDS011;10682;50.874;3.656;2023-08-24T12:08:54;8.25;;;4.63;;
21046;SDS011;10682;50.874;3.656;2023-08-24T12:11:23;10.88;;;4.93;;
21046;SDS011;10682;50.874;3.656;2023-08-24T12:13:53;10.15;;;4.93;;
21046;SDS011;10682;50.874;3.656;2023-08-24T12:16:24;11.18;;;4.72;;
21046;SDS011;10682;50.874;3.656;2023-08-24T12:18:53;6.97;;;4.35;;
21046;SDS011;10682;50.874;3.656;2023-08-24T12:21:26;9.60;;;5.05;;
21046;SDS011;10682;50.874;3.656;2023-08-24T12:26:54;7.50;;;3.97;;
21046;SDS011;10682;50.874;3.656;2023-08-24T12:29:26;6.85;;;4.28;;
21046;SDS011;10682;50.874;3.656;2023-08-24T12:31:57;7.10;;;4.03;;
21046;SDS011;10682;50.874;3.656;2023-08-24T12:34:30;7.15;;;4.05;;
21046;SDS011;10682;50.874;3.656;2023-08-24T12:36:57;9.82;;;4.70;;
21046;SDS011;10682;50.874;3.656;2023-08-24T12:39:26;8.65;;;4.20;;
21046;SDS011;10682;50.874;3.656;2023-08-24T12:44:27;5.43;;;4.43;;
21046;SDS011;10682;50.874;3.656;2023-08-24T12:46:55;8.07;;;4.35;;
21046;SDS011;10682;50.874;3.656;2023-08-24T12:49:23;8.25;;;3.97;;
21046;SDS011;10682;50.874;3.656;2023-08-24T12:51:50;7.20;;;3.85;;
21046;SDS011;10682;50.874;3.656;2023-08-24T12:54:17;11.07;;;3.90;;
21046;SDS011;10682;50.874;3.656;2023-08-24T12:56:46;7.10;;;4.13;;
21046;SDS011;10682;50.874;3.656;2023-08-24T12:59:13;10.43;;;4.03;;
21046;SDS011;10682;50.874;3.656;2023-08-24T13:01:40;9.13;;;4.15;;
21046;SDS011;10682;50.874;3.656;2023-08-24T13:04:09;7.85;;;4.25;;
21046;SDS011;10682;50.874;3.656;2023-08-24T13:06:37;7.05;;;4.35;;
21046;SDS011;10682;50.874;3.656;2023-08-24T13:09:04;7.93;;;4.22;;
21046;SDS011;10682;50.874;3.656;2023-08-24T13:11:32;9.65;;;3.90;;
21046;SDS011;10682;50.874;3.656;2023-08-24T13:14:00;8.48;;;3.60;;
21046;SDS011;10682;50.874;3.656;2023-08-24T13:16:27;9.88;;;4.10;;
21046;SDS011;10682;50.874;3.656;2023-08-24T13:18:55;6.82;;;3.95;;
21046;SDS011;10682;50.874;3.656;2023-08-24T13:21:24;6.95;;;3.72;;
21046;SDS011;10682;50.874;3.656;2023-08-24T13:23:52;8.00;;;3.50;;
21046;SDS011;10682;50.874;3.656;2023-08-24T13:26:19;9.00;;;3.70;;
21046;SDS011;10682;50.874;3.656;2023-08-24T13:28:49;7.30;;;3.20;;
21046;SDS011;10682;50.874;3.656;2023-08-24T13:31:17;7.65;;;3.08;;
21046;SDS011;10682;50.874;3.656;2023-08-24T13:33:45;5.93;;;3.10;;
21046;SDS011;10682;50.874;3.656;2023-08-24T13:36:12;5.68;;;2.88;;
21046;SDS011;10682;50.874;3.656;2023-08-24T13:38:39;7.95;;;2.90;;
21046;SDS011;10682;50.874;3.656;2023-08-24T13:41:06;6.13;;;2.78;;
21046;SDS011;10682;50.874;3.656;2023-08-24T13:43:34;8.07;;;3.38;;
21046;SDS011;10682;50.874;3.656;2023-08-24T13:46:01;5.38;;;2.63;;
21046;SDS011;10682;50.874;3.656;2023-08-24T13:48:32;6.45;;;2.78;;
21046;SDS011;10682;50.874;3.656;2023-08-24T13:51:01;8.02;;;2.90;;
21046;SDS011;10682;50.874;3.656;2023-08-24T13:53:28;6.45;;;2.65;;
21046;SDS011;10682;50.874;3.656;2023-08-24T13:55:55;5.15;;;2.60;;
21046;SDS011;10682;50.874;3.656;2023-08-24T13:58:22;5.63;;;2.55;;
21046;SDS011;10682;50.874;3.656;2023-08-24T14:00:56;6.05;;;2.63;;
21046;SDS011;10682;50.874;3.656;2023-08-24T14:03:24;7.93;;;2.80;;
21046;SDS011;10682;50.874;3.656;2023-08-24T14:05:58;5.90;;;2.58;;
21046;SDS011;10682;50.874;3.656;2023-08-24T14:08:25;4.18;;;2.45;;
21046;SDS011;10682;50.874;3.656;2023-08-24T14:10:53;7.63;;;2.47;;
21046;SDS011;10682;50.874;3.656;2023-08-24T14:13:20;5.22;;;2.58;;
21046;SDS011;10682;50.874;3.656;2023-08-24T14:15:48;6.43;;;2.75;;
21046;SDS011;10682;50.874;3.656;2023-08-24T14:18:16;10.00;;;2.75;;
21046;SDS011;10682;50.874;3.656;2023-08-24T14:20:44;7.85;;;2.60;;
21046;SDS011;10682;50.874;3.656;2023-08-24T14:23:11;8.07;;;2.97;;
21046;SDS011;10682;50.874;3.656;2023-08-24T14:25:38;6.35;;;3.47;;
21046;SDS011;10682;50.874;3.656;2023-08-24T14:28:05;7.85;;;2.85;;
21046;SDS011;10682;50.874;3.656;2023-08-24T14:30:36;6.18;;;3.22;;
21046;SDS011;10682;50.874;3.656;2023-08-24T14:33:03;7.60;;;2.78;;
21046;SDS011;10682;50.874;3.656;2023-08-24T14:35:30;9.93;;;2.90;;
21046;SDS011;10682;50.874;3.656;2023-08-24T14:37:59;6.38;;;2.83;;
21046;SDS011;10682;50.874;3.656;2023-08-24T14:40:26;4.97;;;2.33;;
21046;SDS011;10682;50.874;3.656;2023-08-24T14:42:54;5.70;;;2.75;;
21046;SDS011;10682;50.874;3.656;2023-08-24T14:45:21;5.03;;;2.53;;
21046;SDS011;10682;50.874;3.656;2023-08-24T14:47:48;4.85;;;2.45;;
21046;SDS011;10682;50.874;3.656;2023-08-24T14:50:16;9.07;;;2.67;;
21046;SDS011;10682;50.874;3.656;2023-08-24T14:52:44;3.63;;;2.60;;
21046;SDS011;10682;50.874;3.656;2023-08-24T14:55:11;10.63;;;4.20;;
21046;SDS011;10682;50.874;3.656;2023-08-24T14:57:39;10.30;;;4.13;;
21046;SDS011;10682;50.874;3.656;2023-08-24T15:00:06;7.70;;;2.63;;
21046;SDS011;10682;50.874;3.656;2023-08-24T15:02:36;6.53;;;2.58;;
21046;SDS011;10682;50.874;3.656;2023-08-24T15:05:04;5.72;;;2.70;;
21046;SDS011;10682;50.874;3.656;2023-08-24T15:07:32;4.25;;;2.40;;
21046;SDS011;10682;50.874;3.656;2023-08-24T15:09:59;6.32;;;2.47;;
21046;SDS011;10682;50.874;3.656;2023-08-24T15:12:26;7.57;;;2.55;;
21046;SDS011;10682;50.874;3.656;2023-08-24T15:15:00;6.65;;;2.63;;
21046;SDS011;10682;50.874;3.656;2023-08-24T15:17:31;5.30;;;2.50;;
21046;SDS011;10682;50.874;3.656;2023-08-24T15:19:58;3.97;;;2.20;;
21046;SDS011;10682;50.874;3.656;2023-08-24T15:22:26;8.10;;;2.72;;
21046;SDS011;10682;50.874;3.656;2023-08-24T15:24:56;4.88;;;2.05;;